createdAt,value
2022-12-28T00:02:16.483Z,78.48
2022-12-28T00:04:43.213Z,78.83
2022-12-28T00:07:09.915Z,78.09
2022-12-28T00:09:36.481Z,78.12
2022-12-28T00:12:03.261Z,78.18
2022-12-28T00:14:29.971Z,78.57
2022-12-28T00:16:56.705Z,78.22
2022-12-28T00:19:23.255Z,78.44
2022-12-28T00:21:50.582Z,78.03
2022-12-28T00:24:25.858Z,78.83
2022-12-28T00:26:53.388Z,78.50
2022-12-28T00:29:20.253Z,78.93
2022-12-28T00:31:46.990Z,79.14
2022-12-28T00:34:14.621Z,78.79
2022-12-28T00:37:10.534Z,78.78
2022-12-28T00:39:29.817Z,79.12
2022-12-28T00:41:56.380Z,78.98
2022-12-28T00:44:23.041Z,79.47
2022-12-28T00:46:50.417Z,79.17
2022-12-28T00:49:17.080Z,79.20
2022-12-28T00:51:43.882Z,79.12
2022-12-28T00:54:10.615Z,78.96
2022-12-28T00:56:37.288Z,79.03
2022-12-28T00:59:03.906Z,78.86
2022-12-28T01:01:30.805Z,78.87
2022-12-28T01:03:58.755Z,78.92
2022-12-28T01:06:26.219Z,78.78
2022-12-28T01:08:53.191Z,79.19
2022-12-28T01:11:25.491Z,79.17
2022-12-28T01:13:53.772Z,79.33
2022-12-28T01:16:27.048Z,79.45
2022-12-28T01:18:57.898Z,79.60
2022-12-28T01:21:27.677Z,79.40
2022-12-28T01:23:56.496Z,79.53
2022-12-28T01:26:24.401Z,79.05
2022-12-28T01:28:51.053Z,79.38
2022-12-28T01:31:19.390Z,79.13
2022-12-28T01:33:46.417Z,79.61
2022-12-28T01:36:17.496Z,79.40
2022-12-28T01:38:45.304Z,78.56
2022-12-28T01:41:17.600Z,78.72
2022-12-28T01:43:51.928Z,78.72
2022-12-28T01:46:22.843Z,78.66
2022-12-28T01:48:56.987Z,78.57
2022-12-28T01:51:28.744Z,78.56
2022-12-28T01:53:59.525Z,78.43
2022-12-28T01:56:27.198Z,78.22
2022-12-28T01:58:56.940Z,78.30
2022-12-28T02:01:23.923Z,78.52
2022-12-28T02:03:50.837Z,78.36
2022-12-28T02:06:18.220Z,77.95
2022-12-28T02:09:00.169Z,78.07
2022-12-28T02:11:27.053Z,78.06
2022-12-28T02:13:54.861Z,78.32
2022-12-28T02:16:21.518Z,78.28
2022-12-28T02:18:48.562Z,78.09
2022-12-28T02:21:25.370Z,78.57
2022-12-28T02:24:09.733Z,78.21
2022-12-28T02:27:02.980Z,78.09
2022-12-28T02:29:29.516Z,78.34
2022-12-28T02:32:18.156Z,78.42
2022-12-28T02:35:01.182Z,77.86
2022-12-28T02:37:35.244Z,77.88
2022-12-28T02:40:22.504Z,77.76
2022-12-28T02:42:50.147Z,77.50
2022-12-28T02:46:05.546Z,77.42
2022-12-28T02:49:00.456Z,77.81
2022-12-28T02:51:43.593Z,77.63
2022-12-28T02:54:47.160Z,77.61
2022-12-28T02:57:33.989Z,77.27
2022-12-28T03:00:18.001Z,77.55
2022-12-28T03:03:06.913Z,77.47
2022-12-28T03:05:57.972Z,77.52
2022-12-28T03:08:37.183Z,76.97
2022-12-28T03:11:15.811Z,76.77
2022-12-28T03:14:07.043Z,77.00
2022-12-28T03:16:57.874Z,77.00
2022-12-28T03:19:49.661Z,77.03
2022-12-28T03:22:35.448Z,76.67
2022-12-28T03:25:29.467Z,77.16
2022-12-28T03:28:16.381Z,76.89
2022-12-28T03:31:06.787Z,77.28
2022-12-28T03:33:41.850Z,77.04
2022-12-28T03:36:11.112Z,77.06
2022-12-28T03:38:50.278Z,77.10
2022-12-28T03:41:27.877Z,77.03
2022-12-28T03:43:59.698Z,77.05
2022-12-28T03:46:44.128Z,77.22
2022-12-28T03:49:11.150Z,77.11
2022-12-28T03:51:42.532Z,77.88
2022-12-28T03:54:09.930Z,77.31
2022-12-28T03:56:45.957Z,77.92
2022-12-28T03:59:13.410Z,77.79
2022-12-28T04:01:40.079Z,77.65
2022-12-28T04:04:06.754Z,78.08
2022-12-28T04:06:33.348Z,77.64
2022-12-28T04:09:00.099Z,77.66
2022-12-28T18:18:50.666Z,88.37
2022-12-28T18:21:21.626Z,88.74
2022-12-28T18:23:50.647Z,88.65
2022-12-28T18:26:21.621Z,89.27
2022-12-28T18:28:48.407Z,89.91
2022-12-28T18:31:15.431Z,90.08
2022-12-28T18:33:52.732Z,90.77
2022-12-28T18:36:20.071Z,90.72
2022-12-28T18:38:47.779Z,90.94
2022-12-28T18:41:35.503Z,90.59
2022-12-28T18:44:06.440Z,90.14
2022-12-28T18:46:33.739Z,90.36
2022-12-28T18:49:08.650Z,90.15
2022-12-28T18:51:36.233Z,89.29
2022-12-28T18:54:03.053Z,89.53
2022-12-28T18:56:48.544Z,88.99
2022-12-28T18:59:15.317Z,89.49
2022-12-28T19:04:54.642Z,88.80
2022-12-28T19:07:21.043Z,88.52
2022-12-28T19:10:12.569Z,88.38
2022-12-28T19:12:41.400Z,88.08
2022-12-28T19:15:08.724Z,87.69
2022-12-28T19:17:37.755Z,88.01
2022-12-28T19:20:06.841Z,88.03
2022-12-28T19:22:33.793Z,88.00
2022-12-28T19:25:00.689Z,87.25
2022-12-28T19:27:27.540Z,87.86
2022-12-28T19:30:03.720Z,87.51
2022-12-28T19:32:36.210Z,86.91
2022-12-28T19:35:13.033Z,87.02
2022-12-28T19:37:39.727Z,86.48
2022-12-28T19:40:07.217Z,85.98
2022-12-28T19:42:34.869Z,85.73
2022-12-28T19:45:07.971Z,85.83
2022-12-28T19:47:36.512Z,85.72
2022-12-28T19:50:03.830Z,85.70
2022-12-28T19:52:30.512Z,85.28
2022-12-28T19:54:57.298Z,85.02
2022-12-28T19:57:24.000Z,84.74
2022-12-28T19:59:50.716Z,84.28
2022-12-28T20:02:17.526Z,84.23
2022-12-28T20:04:44.300Z,84.32
2022-12-28T20:07:11.027Z,84.27
2022-12-28T20:09:38.858Z,84.56
2022-12-28T20:12:05.869Z,83.66
2022-12-28T20:14:33.661Z,83.94
2022-12-28T20:17:00.429Z,83.59
2022-12-28T20:19:27.230Z,83.14
2022-12-28T20:21:53.961Z,82.91
2022-12-28T20:24:21.915Z,83.44
2022-12-28T20:26:48.687Z,82.93
2022-12-28T20:29:16.498Z,83.58
2022-12-28T20:31:46.197Z,83.68
2022-12-28T20:34:13.090Z,83.60
2022-12-28T20:36:39.848Z,84.24
2022-12-28T20:39:06.859Z,83.80
2022-12-28T20:41:52.169Z,83.67
2022-12-28T20:44:28.452Z,83.85
2022-12-28T20:46:56.183Z,83.88
2022-12-28T20:49:25.051Z,83.64
2022-12-28T20:51:52.585Z,83.57
2022-12-28T20:54:19.675Z,83.64
2022-12-28T20:56:53.918Z,83.48
2022-12-28T20:59:22.953Z,83.44
2022-12-28T21:01:49.750Z,83.90
2022-12-28T21:04:16.570Z,83.80
2022-12-28T21:06:43.364Z,83.51
2022-12-28T21:09:10.115Z,84.04
2022-12-28T21:11:36.865Z,83.82
2022-12-28T21:14:04.023Z,83.58
2022-12-28T21:16:32.141Z,83.32
2022-12-28T21:18:58.854Z,83.59
2022-12-28T21:21:25.954Z,83.62
2022-12-28T21:23:52.840Z,83.44
2022-12-28T21:26:20.619Z,83.42
2022-12-28T21:28:49.723Z,83.79
2022-12-28T21:31:16.569Z,83.93
2022-12-28T21:33:43.396Z,84.24
2022-12-28T21:36:17.999Z,83.87
2022-12-28T21:38:46.065Z,83.91
2022-12-28T21:41:38.243Z,83.98
2022-12-28T21:44:06.765Z,83.88
2022-12-28T21:46:34.100Z,83.71
2022-12-28T21:49:00.924Z,83.65
2022-12-28T21:51:36.348Z,83.61
2022-12-28T21:54:12.469Z,83.42
2022-12-28T21:56:40.137Z,83.60
2022-12-28T21:59:07.314Z,83.91
2022-12-28T22:01:52.849Z,83.83
2022-12-28T22:04:40.270Z,83.95
2022-12-28T22:07:08.843Z,83.79
2022-12-28T22:09:54.578Z,83.94
2022-12-28T22:12:40.437Z,83.34
2022-12-28T22:15:37.179Z,83.48
2022-12-28T22:18:07.350Z,83.73
2022-12-28T22:20:35.985Z,83.64
2022-12-28T22:23:03.017Z,83.42
2022-12-28T22:25:31.320Z,83.42
2022-12-28T22:27:58.635Z,83.51
2022-12-28T22:30:26.053Z,83.19
2022-12-28T22:32:52.838Z,82.83
2022-12-28T22:35:20.045Z,83.57
2022-12-28T22:37:46.707Z,83.30
2022-12-28T22:40:13.665Z,83.89
2022-12-28T22:42:44.951Z,83.45
2022-12-28T22:45:18.058Z,83.36
2022-12-28T22:47:45.836Z,83.29
2022-12-28T22:50:15.122Z,83.41
2022-12-28T22:52:42.366Z,83.30
2022-12-28T22:55:10.045Z,83.42
2022-12-28T22:57:36.888Z,83.37
2022-12-28T23:00:05.857Z,83.56
2022-12-28T23:02:32.578Z,83.64
2022-12-28T23:04:59.968Z,83.58
2022-12-28T23:07:27.076Z,83.67
2022-12-28T23:09:53.689Z,83.55
2022-12-28T23:12:20.446Z,83.63
2022-12-28T23:15:08.808Z,83.40
2022-12-28T23:17:38.177Z,83.75
2022-12-28T23:20:24.088Z,83.25
2022-12-28T23:23:10.963Z,83.22
2022-12-28T23:25:58.829Z,83.29
2022-12-28T23:28:26.351Z,83.71
2022-12-28T23:30:53.310Z,83.41
2022-12-28T23:33:20.791Z,83.93
2022-12-28T23:35:47.488Z,83.39
2022-12-28T23:38:14.093Z,83.07
2022-12-28T23:40:42.130Z,83.57
2022-12-28T23:43:09.280Z,83.59
2022-12-28T23:45:36.457Z,83.66
2022-12-28T23:48:04.573Z,83.44
2022-12-28T23:50:31.206Z,83.71
2022-12-28T23:52:57.792Z,83.21
2022-12-28T23:55:24.466Z,83.76
2022-12-28T23:57:51.028Z,84.19
